Time;durP1;ratioP1;P1;durP2;ratioP2;P2;SDS_P1;SDS_P2;PMS_P1;PMS_P2;Temp;Humidity;BMP_temperature;BMP_pressure;BME280_temperature;BME280_humidity;BME280_pressure;Samples;Min_cycle;Max_cycle;Signal;HPM_P1;HPM_P2
2023/08/19 00:01:07;;;;;;;7.70;2.90;;;;;;;23.14;87.73;97973.03;5052820;28;20202;-75
2023/08/19 00:03:34;;;;;;;6.55;2.40;;;;;;;23.11;91.42;97976.38;5052991;28;20209;-75
2023/08/19 00:06:06;;;;;;;5.57;2.50;;;;;;;23.00;92.20;97961.38;5053141;28;20212;-75
2023/08/19 00:08:32;;;;;;;5.70;3.15;;;;;;;22.91;93.03;97966.72;5052971;28;20229;-75
2023/08/19 00:10:58;;;;;;;5.28;3.17;;;;;;;22.89;96.53;97965.41;5052933;28;20236;-75
2023/08/19 00:13:25;;;;;;;3.75;3.20;;;;;;;22.89;96.31;97965.41;5052672;28;20699;-75
2023/08/19 00:15:51;;;;;;;4.95;3.60;;;;;;;22.87;96.40;97951.31;5055239;28;20225;-75
2023/08/19 00:18:17;;;;;;;4.00;3.25;;;;;;;22.81;99.07;97955.25;5056420;28;20259;-75
2023/08/19 00:20:44;;;;;;;6.18;2.90;;;;;;;22.79;97.03;97963.66;5056028;28;20664;-75
2023/08/19 00:23:11;;;;;;;5.40;3.08;;;;;;;22.73;100.00;97955.94;5056316;28;20207;-75
2023/08/19 00:25:37;;;;;;;5.05;3.15;;;;;;;22.71;100.00;97958.16;5056094;28;20205;-75
2023/08/19 00:28:04;;;;;;;5.57;3.50;;;;;;;22.67;100.00;97957.13;5056040;28;20209;-75
2023/08/19 00:30:31;;;;;;;8.32;3.50;;;;;;;22.71;100.00;97961.63;5056122;28;20256;-75
2023/08/19 00:32:57;;;;;;;4.85;3.20;;;;;;;22.67;100.00;97962.56;5056193;28;20205;-75
2023/08/19 00:35:24;;;;;;;3.65;3.10;;;;;;;22.64;100.00;97958.53;5055977;28;20229;-75
2023/08/19 00:37:50;;;;;;;6.30;3.35;;;;;;;22.58;100.00;97961.63;5056043;28;20204;-75
2023/08/19 00:40:16;;;;;;;4.47;3.30;;;;;;;22.58;100.00;97958.91;5055631;28;20233;-75
2023/08/19 00:42:44;;;;;;;6.35;3.20;;;;;;;22.51;100.00;97962.00;5055806;28;20573;-75
2023/08/19 00:45:11;;;;;;;7.63;3.25;;;;;;;22.41;100.00;97958.63;5055929;28;20228;-75
2023/08/19 00:47:38;;;;;;;5.20;3.10;;;;;;;22.32;100.00;97963.94;5055925;28;20256;-75
2023/08/19 00:50:07;;;;;;;5.93;3.30;;;;;;;22.32;100.00;97968.53;5055457;28;20730;-75
2023/08/19 00:52:35;;;;;;;5.05;3.22;;;;;;;22.30;100.00;97966.13;5055696;28;20209;-75
2023/08/19 00:55:04;;;;;;;6.35;2.97;;;;;;;22.30;100.00;97966.13;5055561;28;20664;-75
2023/08/19 00:57:31;;;;;;;6.18;3.50;;;;;;;22.25;100.00;97974.34;5055439;28;20296;-75
2023/08/19 00:59:58;;;;;;;3.95;2.80;;;;;;;22.26;100.00;97975.97;5055154;28;20603;-75
2023/08/19 01:02:24;;;;;;;6.30;2.95;;;;;;;22.18;100.00;97968.50;5055631;28;20211;-75
2023/08/19 01:04:50;;;;;;;4.97;2.90;;;;;;;22.16;100.00;97970.69;5055559;28;20201;-75
2023/08/19 01:07:56;;;;;;;4.95;3.00;;;;;;;22.05;100.00;97969.25;5055369;28;20216;-75
2023/08/19 01:10:31;;;;;;;3.38;2.80;;;;;;;22.00;100.00;97963.09;5055389;28;20232;-75
2023/08/19 01:13:12;;;;;;;5.28;3.08;;;;;;;22.05;100.00;97957.59;5055360;28;20193;-75
2023/08/19 01:15:51;;;;;;;3.00;2.40;;;;;;;21.90;100.00;97955.94;5055233;28;20209;-75
2023/08/19 01:18:18;;;;;;;8.75;3.40;;;;;;;21.88;100.00;97957.34;5055160;28;20199;-75
2023/08/19 01:20:47;;;;;;;4.18;3.10;;;;;;;21.85;100.00;97960.63;5055181;28;20209;-75
2023/08/19 01:23:34;;;;;;;3.70;3.20;;;;;;;21.80;100.00;97958.78;5054909;28;20573;-75
2023/08/19 01:26:01;;;;;;;4.28;3.17;;;;;;;21.83;100.00;97952.78;5054195;28;20209;-75
2023/08/19 01:28:27;;;;;;;3.67;2.95;;;;;;;21.82;100.00;97948.50;5054825;28;20211;-75
2023/08/19 01:30:54;;;;;;;4.63;3.00;;;;;;;21.87;100.00;97945.69;5055034;28;20209;-75
2023/08/19 01:33:21;;;;;;;5.32;3.20;;;;;;;21.87;100.00;97945.69;5055121;28;20216;-75
2023/08/19 01:36:08;;;;;;;4.05;3.30;;;;;;;21.87;100.00;97937.59;5054594;28;20247;-76
2023/08/19 01:38:45;;;;;;;5.80;3.08;;;;;;;21.84;100.00;97938.16;5054769;28;20235;-75
2023/08/19 01:41:14;;;;;;;5.53;3.10;;;;;;;21.75;100.00;97945.31;5054925;28;20197;-75
2023/08/19 01:43:41;;;;;;;6.13;3.75;;;;;;;21.71;100.00;97943.53;5054770;28;20215;-75
2023/08/19 01:46:07;;;;;;;6.00;3.33;;;;;;;21.68;100.00;97946.75;5054427;28;20201;-75
2023/08/19 01:48:34;;;;;;;4.85;3.30;;;;;;;21.72;100.00;97953.25;5054634;28;20225;-75
2023/08/19 01:51:00;;;;;;;3.90;3.10;;;;;;;21.69;100.00;97949.22;5054713;28;20212;-75
2023/08/19 01:53:27;;;;;;;5.47;3.47;;;;;;;21.71;100.00;97957.03;5054479;28;20201;-75
2023/08/19 01:55:53;;;;;;;6.32;3.70;;;;;;;21.59;100.00;97956.63;5054440;28;20225;-75
2023/08/19 01:58:19;;;;;;;3.50;3.20;;;;;;;21.55;100.00;97963.72;5054430;28;20201;-75
2023/08/19 02:00:46;;;;;;;5.57;3.50;;;;;;;21.56;100.00;97957.25;5054762;28;20208;-75
2023/08/19 02:03:12;;;;;;;3.90;3.23;;;;;;;21.49;100.00;97957.59;5054337;28;20569;-75
2023/08/19 02:05:38;;;;;;;5.60;3.42;;;;;;;21.46;100.00;97955.47;5054371;28;20223;-75
2023/08/19 02:08:05;;;;;;;4.07;3.50;;;;;;;21.44;100.00;97952.22;5054334;28;20212;-75
2023/08/19 02:10:33;;;;;;;5.90;3.10;;;;;;;21.41;100.00;97957.41;5054251;28;20233;-75
2023/08/19 02:12:59;;;;;;;6.27;3.30;;;;;;;21.39;100.00;97963.13;5054574;28;20209;-75
2023/08/19 02:15:25;;;;;;;3.85;3.10;;;;;;;21.38;100.00;97966.13;5054127;28;20205;-75
2023/08/19 02:17:52;;;;;;;5.20;3.47;;;;;;;21.29;100.00;97968.66;5054181;28;20201;-75
2023/08/19 02:20:18;;;;;;;8.33;3.63;;;;;;;21.26;100.00;97966.50;5054037;28;20225;-75
2023/08/19 02:22:45;;;;;;;3.60;3.00;;;;;;;21.20;100.00;97962.28;5054057;28;20571;-75
2023/08/19 02:25:11;;;;;;;3.45;3.13;;;;;;;21.13;100.00;97963.72;5054096;28;20201;-75
2023/08/19 02:27:38;;;;;;;3.73;3.03;;;;;;;21.24;100.00;97970.59;5053946;28;20207;-75
2023/08/19 02:30:05;;;;;;;6.77;3.63;;;;;;;21.10;100.00;97967.81;5053858;28;20229;-75
2023/08/19 02:32:32;;;;;;;5.00;3.30;;;;;;;21.08;100.00;97978.13;5053631;28;20212;-75
2023/08/19 02:35:01;;;;;;;3.97;3.53;;;;;;;21.08;100.00;97967.31;5054147;28;20216;-75
2023/08/19 02:37:27;;;;;;;7.27;3.33;;;;;;;21.06;100.00;97972.19;5053456;28;20229;-75
2023/08/19 02:39:54;;;;;;;3.53;3.20;;;;;;;21.08;100.00;97964.59;5052705;28;20319;-75
2023/08/19 02:42:20;;;;;;;5.13;3.30;;;;;;;21.04;100.00;97962.75;5053672;28;20211;-75
2023/08/19 02:44:46;;;;;;;6.00;3.43;;;;;;;21.03;100.00;97955.72;5053770;28;20296;-75
2023/08/19 02:47:13;;;;;;;4.50;3.03;;;;;;;20.92;100.00;97959.63;5053769;28;20288;-75
2023/08/19 02:49:39;;;;;;;5.13;3.60;;;;;;;20.92;100.00;97959.63;5053264;28;20229;-75
2023/08/19 02:52:06;;;;;;;5.07;3.37;;;;;;;20.88;100.00;97959.38;5053695;28;20283;-75
2023/08/19 02:54:33;;;;;;;5.03;3.43;;;;;;;20.97;100.00;97954.16;5053584;28;20209;-75
2023/08/19 02:56:59;;;;;;;4.87;3.43;;;;;;;21.00;100.00;97959.00;5053468;28;20231;-75
2023/08/19 02:59:25;;;;;;;4.33;3.00;;;;;;;20.96;100.00;97961.47;5053446;28;20596;-75
2023/08/19 03:01:52;;;;;;;7.00;3.20;;;;;;;21.06;100.00;97960.53;5053499;28;20570;-75
2023/08/19 03:04:18;;;;;;;4.53;3.40;;;;;;;21.11;100.00;97977.53;5053464;28;20575;-75
2023/08/19 03:06:44;;;;;;;4.43;3.47;;;;;;;21.09;100.00;97970.78;5053196;28;20557;-75
2023/08/19 03:09:11;;;;;;;6.47;3.13;;;;;;;21.07;100.00;97970.28;5052726;28;20738;-75
2023/08/19 03:11:39;;;;;;;4.70;3.20;;;;;;;21.07;100.00;97965.66;5053207;28;20209;-75
2023/08/19 03:14:06;;;;;;;3.50;3.17;;;;;;;21.04;100.00;97968.97;5053214;28;20205;-75
2023/08/19 03:16:32;;;;;;;4.80;3.57;;;;;;;21.01;100.00;97972.22;5053162;28;20229;-75
2023/08/19 03:18:58;;;;;;;4.30;3.27;;;;;;;20.97;100.00;97970.38;5053195;28;20225;-75
2023/08/19 03:21:25;;;;;;;6.17;3.47;;;;;;;20.87;100.00;97965.06;5052910;28;20571;-75
2023/08/19 03:23:51;;;;;;;4.27;3.20;;;;;;;20.86;100.00;97963.44;5053192;28;20212;-75
2023/08/19 03:26:17;;;;;;;6.80;3.67;;;;;;;20.85;100.00;97967.25;5053070;28;20205;-75
2023/08/19 03:28:44;;;;;;;4.77;3.47;;;;;;;20.86;100.00;97972.38;5053223;28;20588;-75
2023/08/19 03:31:11;;;;;;;9.80;3.60;;;;;;;20.83;100.00;97969.41;5053220;28;20224;-75
2023/08/19 03:33:42;;;;;;;3.83;3.30;;;;;;;20.77;100.00;97965.16;5053225;28;20212;-75
2023/08/19 03:36:08;;;;;;;6.30;3.97;;;;;;;20.78;100.00;97962.19;5053070;28;20225;-75
2023/08/19 03:38:34;;;;;;;6.03;4.00;;;;;;;20.69;100.00;97961.19;5052535;28;20229;-75
2023/08/19 03:41:01;;;;;;;7.50;3.83;;;;;;;20.71;100.00;97961.72;5052955;28;20560;-75
2023/08/19 03:43:27;;;;;;;6.20;3.83;;;;;;;20.76;100.00;97964.34;5053015;28;20217;-75
2023/08/19 03:45:53;;;;;;;9.60;4.10;;;;;;;20.72;100.00;97967.94;5052850;28;20198;-75
2023/08/19 03:48:20;;;;;;;5.63;3.47;;;;;;;20.72;100.00;97965.22;5052610;28;20201;-75
2023/08/19 03:50:46;;;;;;;7.20;4.13;;;;;;;20.74;100.00;97963.84;5055262;28;20205;-75
2023/08/19 03:53:12;;;;;;;7.47;3.93;;;;;;;20.66;100.00;97972.56;5056258;28;20209;-75
2023/08/19 03:55:39;;;;;;;7.53;4.10;;;;;;;20.72;100.00;97966.03;5056652;28;20208;-75
2023/08/19 03:58:05;;;;;;;7.23;3.90;;;;;;;20.67;100.00;97966.06;5056757;28;20217;-75
2023/08/19 04:00:31;;;;;;;8.00;4.23;;;;;;;20.64;100.00;97969.34;5056225;28;20221;-75
2023/08/19 04:02:58;;;;;;;9.13;4.17;;;;;;;20.50;100.00;97973.00;5056342;28;20695;-75
2023/08/19 04:05:24;;;;;;;8.17;4.50;;;;;;;20.44;100.00;97963.34;5056279;28;20288;-75
2023/08/19 04:07:51;;;;;;;7.90;4.30;;;;;;;20.40;100.00;97968.50;5054980;28;20197;-78
2023/08/19 04:10:17;;;;;;;13.80;4.17;;;;;;;20.44;100.00;97963.34;5058987;28;20217;-79
2023/08/19 04:12:44;;;;;;;11.67;4.17;;;;;;;20.41;100.00;97962.00;5059454;28;20247;-78
2023/08/19 04:15:10;;;;;;;9.10;4.40;;;;;;;20.44;100.00;97963.34;5059087;28;20198;-78
2023/08/19 04:17:37;;;;;;;4.40;3.60;;;;;;;20.47;100.00;97962.75;5058678;28;20225;-78
2023/08/19 04:20:07;;;;;;;9.33;4.30;;;;;;;20.52;100.00;97966.22;5060580;28;20233;-78
2023/08/19 04:22:34;;;;;;;7.43;3.67;;;;;;;20.42;100.00;97968.19;5058480;28;20190;-78
2023/08/19 04:25:00;;;;;;;9.83;4.30;;;;;;;20.41;100.00;97977.41;5059708;28;20201;-78
2023/08/19 04:27:26;;;;;;;7.67;3.70;;;;;;;20.43;100.00;97973.31;5059890;28;20202;-79
2023/08/19 04:29:53;;;;;;;9.67;3.80;;;;;;;20.40;100.00;97984.72;5059796;28;20575;-78
2023/08/19 04:32:19;;;;;;;8.07;3.63;;;;;;;20.42;100.00;97995.22;5059041;28;20193;-78
2023/08/19 04:34:45;;;;;;;10.67;3.80;;;;;;;20.40;100.00;97992.81;5058795;28;20205;-78
2023/08/19 04:37:12;;;;;;;9.17;3.77;;;;;;;20.31;100.00;97985.59;5059350;28;20224;-78
2023/08/19 04:39:38;;;;;;;10.23;3.97;;;;;;;20.36;100.00;97999.03;5058398;28;20237;-79
2023/08/19 04:42:05;;;;;;;11.83;4.10;;;;;;;20.41;100.00;97989.03;5058905;28;20557;-79
2023/08/19 04:44:31;;;;;;;11.90;4.50;;;;;;;20.34;100.00;97996.63;5056974;28;20205;-79
2023/08/19 04:46:58;;;;;;;10.13;4.50;;;;;;;20.29;100.00;97998.56;5055517;28;20197;-79
2023/08/19 04:49:25;;;;;;;9.80;4.97;;;;;;;20.27;100.00;97995.34;5058886;28;20302;-79
2023/08/19 04:51:51;;;;;;;12.20;5.23;;;;;;;20.35;100.00;97987.44;5058460;28;20213;-79
2023/08/19 04:54:17;;;;;;;11.60;5.30;;;;;;;20.41;100.00;97988.19;5059009;28;20206;-79
2023/08/19 04:56:44;;;;;;;10.77;5.97;;;;;;;20.43;100.00;97983.34;5058935;28;20248;-79
2023/08/19 04:59:10;;;;;;;9.13;4.97;;;;;;;20.53;100.00;97994.06;5058502;28;20221;-79
2023/08/19 05:01:36;;;;;;;8.60;4.70;;;;;;;20.58;100.00;97989.38;5050470;28;20206;-79
2023/08/19 05:04:03;;;;;;;8.30;5.40;;;;;;;20.58;100.00;97994.78;5038779;28;20202;-79
2023/08/19 05:06:29;;;;;;;10.10;4.83;;;;;;;20.65;100.00;97999.84;5038784;28;20288;-79
2023/08/19 05:08:55;;;;;;;12.73;5.07;;;;;;;20.64;100.00;98006.38;5042206;28;20587;-79
2023/08/19 05:11:22;;;;;;;9.43;5.03;;;;;;;20.62;100.00;97997.75;5057447;28;20197;-79
2023/08/19 05:13:48;;;;;;;10.00;4.80;;;;;;;20.76;100.00;98004.09;5057873;28;20678;-79
2023/08/19 05:16:17;;;;;;;6.83;4.73;;;;;;;20.76;100.00;98004.09;5053989;28;20205;-79
2023/08/19 05:18:44;;;;;;;8.57;4.87;;;;;;;20.81;100.00;98007.56;5048985;28;20221;-79
2023/08/19 05:21:10;;;;;;;9.70;4.57;;;;;;;20.88;100.00;98012.59;5057061;28;20609;-78
2023/08/19 05:23:36;;;;;;;9.50;5.07;;;;;;;20.99;100.00;98008.75;5057395;28;20209;-79
2023/08/19 05:26:03;;;;;;;7.77;4.50;;;;;;;21.08;100.00;98007.84;5055755;28;20676;-78
2023/08/19 05:28:29;;;;;;;6.60;4.17;;;;;;;21.18;100.00;98012.31;5056987;28;20216;-79
2023/08/19 05:30:55;;;;;;;5.70;3.80;;;;;;;21.27;100.00;98010.59;5040409;28;20206;-78
2023/08/19 05:33:22;;;;;;;6.57;4.20;;;;;;;21.37;100.00;98002.34;5058141;28;20723;-79
2023/08/19 05:35:48;;;;;;;8.37;4.73;;;;;;;21.37;100.00;98003.19;5057762;28;20552;-78
2023/08/19 05:38:14;;;;;;;7.17;3.97;;;;;;;21.52;100.00;98004.91;5057018;28;20214;-78
2023/08/19 05:40:41;;;;;;;6.97;4.30;;;;;;;21.54;100.00;98006.22;5056683;28;20213;-78
2023/08/19 05:43:07;;;;;;;5.67;4.03;;;;;;;21.59;100.00;98008.03;5056453;28;20206;-78
2023/08/19 05:45:34;;;;;;;6.00;4.10;;;;;;;21.60;100.00;97994.22;5047929;28;20650;-78
2023/08/19 05:48:00;;;;;;;9.10;4.43;;;;;;;21.66;100.00;97997.69;5049388;28;20223;-78
2023/08/19 05:50:27;;;;;;;4.97;4.30;;;;;;;21.80;100.00;98001.31;5041399;28;20726;-79
2023/08/19 05:52:53;;;;;;;4.87;4.10;;;;;;;21.92;100.00;98012.47;5057126;28;20204;-78
2023/08/19 05:55:20;;;;;;;8.23;4.03;;;;;;;21.94;100.00;98015.72;5056963;28;20205;-79
2023/08/19 05:57:46;;;;;;;9.10;3.80;;;;;;;22.02;100.00;98020.47;5056718;28;20713;-78
2023/08/19 06:00:13;;;;;;;7.73;4.13;;;;;;;22.08;100.00;98022.81;5057535;28;20221;-78
2023/08/19 06:02:39;;;;;;;8.52;4.05;;;;;;;22.17;100.00;98034.59;5057235;28;20233;-78
2023/08/19 06:05:06;;;;;;;7.78;4.43;;;;;;;22.34;100.00;98034.84;5052314;28;20205;-79
2023/08/19 06:07:33;;;;;;;7.65;4.78;;;;;;;22.30;100.00;98033.84;5056456;28;20247;-79
2023/08/19 06:10:00;;;;;;;7.25;4.10;;;;;;;22.34;100.00;98034.06;5057475;28;20278;-79
2023/08/19 06:12:26;;;;;;;5.38;4.07;;;;;;;22.46;100.00;98039.84;5056255;28;20193;-79
2023/08/19 06:14:52;;;;;;;4.38;3.60;;;;;;;22.48;100.00;98040.38;5055897;28;20282;-78
2023/08/19 06:17:19;;;;;;;4.68;3.80;;;;;;;22.61;100.00;98032.28;5056468;28;20224;-79
2023/08/19 06:19:45;;;;;;;5.78;3.75;;;;;;;22.60;100.00;98040.72;5055976;28;20312;-78
2023/08/19 06:22:12;;;;;;;5.25;3.53;;;;;;;22.64;100.00;98041.72;5056533;28;20276;-78
2023/08/19 06:24:38;;;;;;;5.25;3.28;;;;;;;22.72;100.00;98047.28;5057023;28;20209;-79
2023/08/19 06:27:05;;;;;;;5.82;3.40;;;;;;;22.76;100.00;98042.06;5055600;28;20200;-78
2023/08/19 06:29:31;;;;;;;5.45;3.85;;;;;;;22.83;100.00;98047.94;5056746;28;20236;-78
2023/08/19 06:31:58;;;;;;;4.40;3.85;;;;;;;22.91;100.00;98049.94;5056994;28;20220;-79
2023/08/19 06:34:25;;;;;;;6.85;4.13;;;;;;;22.90;100.00;98056.47;5056927;28;20212;-79
2023/08/19 06:36:53;;;;;;;7.60;3.97;;;;;;;22.98;100.00;98056.56;5056673;28;20217;-79
2023/08/19 06:39:26;;;;;;;6.90;3.50;;;;;;;23.02;100.00;98059.50;5056470;28;20605;-78
2023/08/19 06:42:05;;;;;;;6.53;3.78;;;;;;;23.13;100.00;98055.50;5056155;28;20197;-79
2023/08/19 06:44:39;;;;;;;5.57;3.78;;;;;;;23.26;100.00;98060.19;5057350;28;20190;-79
2023/08/19 06:47:09;;;;;;;6.72;3.20;;;;;;;23.33;100.00;98060.59;5047864;28;20193;-79
2023/08/19 06:49:36;;;;;;;4.07;3.35;;;;;;;23.35;100.00;98063.81;5056803;28;20308;-78
2023/08/19 06:52:03;;;;;;;6.10;3.47;;;;;;;23.60;100.00;98074.19;5056203;28;20619;-79
2023/08/19 06:54:30;;;;;;;5.93;3.40;;;;;;;23.70;100.00;98068.53;5056591;28;20205;-79
2023/08/19 06:57:14;;;;;;;4.15;3.75;;;;;;;23.73;100.00;98070.63;5046976;28;20260;-78
2023/08/19 06:59:42;;;;;;;3.97;3.45;;;;;;;23.83;100.00;98067.72;5037689;28;20229;-79
2023/08/19 07:02:09;;;;;;;4.20;3.25;;;;;;;23.92;100.00;98074.09;5056988;28;20256;-79
2023/08/19 07:04:36;;;;;;;8.50;3.50;;;;;;;23.90;100.00;98070.84;5056004;28;20209;-78
2023/08/19 07:07:05;;;;;;;6.18;3.42;;;;;;;23.98;100.00;98076.41;5057682;28;20200;-79
2023/08/19 07:09:34;;;;;;;6.90;3.58;;;;;;;24.05;100.00;98073.22;5055899;28;20221;-79
2023/08/19 07:12:02;;;;;;;8.18;3.38;;;;;;;24.06;100.00;98064.78;5055619;28;20204;-79
2023/08/19 07:14:30;;;;;;;17.33;4.30;;;;;;;24.23;100.00;98073.09;5055330;28;20205;-79
2023/08/19 07:17:00;;;;;;;12.02;4.05;;;;;;;24.26;100.00;98071.69;5040843;28;20260;-79
2023/08/19 07:19:35;;;;;;;10.13;3.65;;;;;;;24.49;100.00;98074.13;5037011;28;20226;-78
2023/08/19 07:22:02;;;;;;;6.43;3.75;;;;;;;24.59;100.00;98073.91;5053879;28;20192;-79
2023/08/19 07:24:29;;;;;;;10.20;3.67;;;;;;;24.67;100.00;98073.19;5054341;28;20208;-78
2023/08/19 07:26:58;;;;;;;5.68;3.40;;;;;;;24.90;99.95;98076.69;5059672;28;20243;-78
2023/08/19 07:29:25;;;;;;;7.50;3.38;;;;;;;25.01;96.89;98076.13;5057974;28;20313;-78
2023/08/19 07:31:52;;;;;;;6.63;3.22;;;;;;;25.00;98.22;98082.69;5040260;28;20276;-78
2023/08/19 07:34:19;;;;;;;6.50;3.53;;;;;;;25.12;97.55;98082.94;5044927;28;20247;-79
2023/08/19 07:36:46;;;;;;;24.00;6.97;;;;;;;25.20;100.00;98092.25;5059069;28;20247;-79
2023/08/19 07:39:13;;;;;;;10.80;3.95;;;;;;;25.12;98.33;98093.00;5059320;28;20252;-79
2023/08/19 07:41:41;;;;;;;10.27;4.35;;;;;;;25.11;98.74;98100.34;5060134;28;20196;-79
2023/08/19 07:44:08;;;;;;;6.47;3.95;;;;;;;25.25;97.71;98097.56;5060805;28;20213;-79
2023/08/19 07:46:37;;;;;;;4.65;3.25;;;;;;;25.47;95.28;98090.16;5040496;28;20682;-78
2023/08/19 07:49:03;;;;;;;7.15;3.38;;;;;;;25.65;94.48;98091.03;5039512;28;20735;-79
2023/08/19 07:51:31;;;;;;;5.85;3.67;;;;;;;25.89;92.17;98092.25;5039784;28;20718;-78
2023/08/19 07:53:58;;;;;;;12.82;3.92;;;;;;;25.84;93.48;98094.31;5040623;28;20288;-79
2023/08/19 07:56:25;;;;;;;4.97;3.25;;;;;;;25.81;94.44;98100.38;5040648;28;20256;-79
2023/08/19 07:58:52;;;;;;;14.82;5.00;;;;;;;25.86;93.43;98094.78;5058717;28;20225;-79
2023/08/19 08:01:19;;;;;;;6.63;3.17;;;;;;;25.95;91.47;98106.53;5060272;28;20236;-79
2023/08/19 08:03:47;;;;;;;6.10;3.40;;;;;;;26.15;89.87;98095.84;5059655;28;20578;-79
2023/08/19 08:06:15;;;;;;;8.30;4.38;;;;;;;26.25;89.42;98100.19;5059943;28;20263;-79
2023/08/19 08:08:43;;;;;;;5.50;3.90;;;;;;;26.38;87.58;98091.88;5059581;28;20229;-79
2023/08/19 08:11:10;;;;;;;7.28;3.80;;;;;;;26.61;85.35;98098.81;5057888;28;20233;-79
2023/08/19 08:13:37;;;;;;;7.05;3.58;;;;;;;26.51;85.83;98114.66;5058711;28;20579;-79
2023/08/19 08:16:04;;;;;;;6.30;3.85;;;;;;;26.37;88.09;98103.91;5059403;28;20213;-79
2023/08/19 08:18:31;;;;;;;20.90;5.60;;;;;;;26.53;85.06;98101.50;5059170;28;20693;-79
2023/08/19 08:20:58;;;;;;;11.90;3.58;;;;;;;26.75;86.64;98099.47;5058540;28;20197;-79
2023/08/19 08:23:26;;;;;;;8.75;3.80;;;;;;;26.70;86.60;98096.09;5059106;28;20224;-79
2023/08/19 08:25:53;;;;;;;9.20;3.40;;;;;;;26.67;85.36;98102.97;5041495;28;20292;-79
2023/08/19 08:28:21;;;;;;;7.57;3.97;;;;;;;26.75;83.68;98094.00;5058791;28;20292;-79
2023/08/19 08:30:48;;;;;;;7.00;3.60;;;;;;;26.85;84.91;98098.31;5045401;28;20637;-79
2023/08/19 08:33:15;;;;;;;8.00;3.85;;;;;;;27.08;84.01;98088.81;5039557;28;20209;-79
2023/08/19 08:35:42;;;;;;;9.93;3.60;;;;;;;27.00;83.39;98093.16;5040286;28;20293;-79
2023/08/19 08:38:09;;;;;;;11.98;4.22;;;;;;;26.98;85.34;98089.97;5021576;28;20309;-79
2023/08/19 08:40:37;;;;;;;7.25;4.18;;;;;;;27.08;81.52;98096.19;5039151;28;20218;-79
2023/08/19 08:43:08;;;;;;;85.88;15.10;;;;;;;27.28;83.16;98090.06;5040525;28;20209;-78
2023/08/19 08:45:37;;;;;;;11.63;5.55;;;;;;;27.33;78.87;98093.44;5037979;28;20245;-79
2023/08/19 08:48:04;;;;;;;25.25;6.05;;;;;;;27.71;80.21;98086.03;5038448;28;20198;-79
2023/08/19 08:50:33;;;;;;;472.92;67.75;;;;;;;27.50;80.77;98087.94;5038432;28;20600;-79
2023/08/19 08:53:01;;;;;;;66.50;9.30;;;;;;;27.43;79.26;98090.34;5038671;28;20676;-78
2023/08/19 08:55:29;;;;;;;13.48;5.00;;;;;;;27.70;76.26;98092.66;5057585;28;20221;-79
2023/08/19 08:57:56;;;;;;;6.38;3.67;;;;;;;27.97;76.49;98086.75;5057910;28;20251;-79
2023/08/19 09:00:24;;;;;;;30.13;9.82;;;;;;;27.92;77.38;98086.94;5041371;28;20231;-79
2023/08/19 09:02:53;;;;;;;11.70;4.88;;;;;;;28.04;74.95;98087.03;5042726;28;20202;-79
2023/08/19 09:05:23;;;;;;;4.43;3.30;;;;;;;28.44;74.07;98087.44;5037850;28;20305;-78
2023/08/19 09:07:53;;;;;;;5.45;3.97;;;;;;;28.27;76.16;98085.59;5039062;28;20245;-79
2023/08/19 09:10:24;;;;;;;7.47;4.07;;;;;;;28.32;76.61;98098.28;5038770;28;20265;-78
2023/08/19 09:12:58;;;;;;;5.55;3.08;;;;;;;28.53;72.42;98091.69;5056614;28;20198;-79
2023/08/19 09:15:27;;;;;;;6.72;3.67;;;;;;;28.67;74.43;98096.91;5058040;28;20193;-79
2023/08/19 09:17:54;;;;;;;1120.60;162.30;;;;;;;28.71;74.34;98087.69;5057275;28;20590;-79
2023/08/19 09:20:22;;;;;;;9.73;3.70;;;;;;;28.99;68.65;98090.69;5058626;28;20226;-79
2023/08/19 09:22:50;;;;;;;39.45;8.32;;;;;;;28.98;71.36;98089.06;5057835;28;20212;-79
2023/08/19 09:25:17;;;;;;;7.82;3.70;;;;;;;29.10;67.74;98091.84;5059350;28;20197;-79
2023/08/19 09:27:46;;;;;;;45.40;12.30;;;;;;;29.14;70.65;98085.38;5057984;28;20720;-79
2023/08/19 09:30:16;;;;;;;7.43;3.60;;;;;;;29.57;71.68;98101.38;5057714;28;20221;-79
2023/08/19 09:32:45;;;;;;;7.43;3.45;;;;;;;29.66;69.45;98089.13;5057807;28;20603;-78
2023/08/19 09:35:12;;;;;;;7.25;3.47;;;;;;;29.79;68.33;98092.72;5057792;28;20205;-79
2023/08/19 09:37:40;;;;;;;6.47;3.72;;;;;;;29.83;66.62;98094.41;5058380;28;20282;-79
2023/08/19 09:40:10;;;;;;;9.30;3.70;;;;;;;29.98;68.85;98093.72;5040733;28;20239;-79
2023/08/19 09:42:38;;;;;;;8.65;3.70;;;;;;;29.91;68.98;98093.50;5060611;28;20205;-80
2023/08/19 09:45:06;;;;;;;8.90;3.60;;;;;;;30.05;70.38;98095.88;5058422;28;20217;-79
2023/08/19 09:47:46;;;;;;;10.98;3.72;;;;;;;30.25;66.09;98089.50;5056029;28;20205;-79
2023/08/19 09:50:13;;;;;;;8.52;3.40;;;;;;;30.33;64.96;98102.28;5058101;28;20338;-79
2023/08/19 09:52:40;;;;;;;7.35;3.22;;;;;;;30.38;64.74;98089.13;5058673;28;20212;-79
2023/08/19 09:55:07;;;;;;;9.55;4.20;;;;;;;30.40;66.09;98097.00;5056744;28;20276;-79
2023/08/19 09:57:36;;;;;;;5.90;3.45;;;;;;;30.48;66.92;98105.09;5056893;28;20233;-79
2023/08/19 10:00:05;;;;;;;7.50;3.63;;;;;;;30.15;66.80;98104.47;5057214;28;20225;-79
2023/08/19 10:02:31;;;;;;;12.82;3.75;;;;;;;30.22;67.59;98098.41;5057074;28;20548;-79
2023/08/19 10:04:57;;;;;;;21.20;4.38;;;;;;;30.17;66.50;98098.66;5040139;28;20205;-79
2023/08/19 10:07:31;;;;;;;13.80;3.45;;;;;;;30.75;63.38;98103.59;5057880;28;20236;-79
2023/08/19 10:10:01;;;;;;;6.60;3.20;;;;;;;30.75;62.75;98096.13;5057440;28;20228;-79
2023/08/19 10:12:28;;;;;;;6.60;3.33;;;;;;;30.79;59.92;98102.53;5058845;28;20241;-79
2023/08/19 10:14:58;;;;;;;18.48;4.95;;;;;;;30.75;60.65;98089.88;5058014;28;20201;-80
2023/08/19 10:17:26;;;;;;;3.88;3.28;;;;;;;30.93;59.13;98094.69;5058220;28;20649;-79
2023/08/19 10:20:01;;;;;;;7.97;3.50;;;;;;;31.18;58.31;98096.19;5054072;28;20575;-79
2023/08/19 10:22:31;;;;;;;7.50;3.53;;;;;;;30.89;55.78;98098.50;5057889;28;20189;-79
2023/08/19 10:24:59;;;;;;;11.23;3.58;;;;;;;30.71;56.65;98092.47;5038177;28;20280;-76
2023/08/19 10:27:26;;;;;;;6.10;3.25;;;;;;;30.87;55.75;98095.28;5053738;28;20207;-76
2023/08/19 10:29:59;;;;;;;7.13;3.45;;;;;;;31.33;53.71;98089.94;5053589;28;20235;-75
2023/08/19 10:32:27;;;;;;;7.05;3.90;;;;;;;31.34;53.72;98099.78;5053568;28;20202;-75
2023/08/19 10:35:09;;;;;;;9.48;3.80;;;;;;;31.41;52.37;98093.66;5053818;28;20671;-75
2023/08/19 10:37:40;;;;;;;7.85;3.80;;;;;;;31.23;51.44;98098.69;5052882;28;20194;-76
2023/08/19 10:40:22;;;;;;;3.85;3.28;;;;;;;31.02;49.72;98091.81;5053348;28;20239;-76
2023/08/19 10:43:01;;;;;;;6.07;3.13;;;;;;;31.34;52.23;98093.50;5053379;28;20239;-75
2023/08/19 10:45:32;;;;;;;6.88;3.45;;;;;;;31.71;54.00;98092.09;5057059;28;20559;-79
2023/08/19 10:47:59;;;;;;;6.47;3.05;;;;;;;32.10;49.66;98091.13;5057102;28;20591;-79
2023/08/19 10:50:28;;;;;;;5.35;3.35;;;;;;;32.17;49.24;98094.03;5057325;28;20582;-80
2023/08/19 10:52:59;;;;;;;6.10;3.17;;;;;;;31.98;49.74;98089.25;5052542;28;20213;-79
2023/08/19 10:55:25;;;;;;;7.40;3.55;;;;;;;32.05;51.42;98080.38;5056782;28;20553;-79
2023/08/19 10:57:52;;;;;;;8.27;3.00;;;;;;;32.26;48.09;98089.94;5056883;28;20217;-79
2023/08/19 11:00:31;;;;;;;5.20;3.10;;;;;;;32.20;49.73;98088.59;5056245;28;20233;-79
2023/08/19 11:02:58;;;;;;;5.75;3.13;;;;;;;32.21;47.06;98084.72;5055987;28;20196;-80
2023/08/19 11:05:26;;;;;;;6.93;3.45;;;;;;;32.27;45.25;98086.03;5056757;28;20207;-79
2023/08/19 11:07:54;;;;;;;4.82;3.08;;;;;;;32.00;46.96;98088.91;5056248;28;20258;-79
2023/08/19 11:10:21;;;;;;;6.03;3.30;;;;;;;32.23;47.09;98087.88;5056765;28;20259;-79
2023/08/19 11:12:49;;;;;;;5.72;3.58;;;;;;;32.31;47.12;98088.88;5056347;28;20745;-79
2023/08/19 11:15:26;;;;;;;6.22;3.42;;;;;;;32.33;43.06;98090.09;5057055;28;20197;-80
2023/08/19 11:17:52;;;;;;;3.80;2.72;;;;;;;32.37;42.05;98088.22;5057648;28;20262;-79
2023/08/19 11:20:19;;;;;;;5.90;3.20;;;;;;;32.30;42.68;98088.09;5057899;28;20425;-79
2023/08/19 11:22:50;;;;;;;4.20;3.10;;;;;;;32.09;42.08;98078.50;5056640;28;20237;-79
2023/08/19 11:25:17;;;;;;;6.45;3.08;;;;;;;32.27;43.00;98075.03;5056956;28;20190;-80
2023/08/19 11:27:43;;;;;;;5.30;3.30;;;;;;;32.39;42.00;98077.69;5057559;28;20294;-79
2023/08/19 11:30:11;;;;;;;5.47;3.25;;;;;;;32.62;40.95;98083.25;5056601;28;20333;-80